PABV

Details ICAO PABV
Name BIRCHWOOD
Region USA (Alaska)
Timezone America/Anchorage (UTC-8.0)
Plans Departing 4
Arriving 1
Stats Elevation 96 ft / 29 m (AMSL)
Location 61.414798° -149.509082°
Runways 2
Magnetic Variation 16.271° E
Sunrise 2018-05-24 12:48:33 UTC / 2018-05-24 04:48:33 Local
Sunset 2018-05-25 07:04:09 UTC / 2018-05-24 23:04:09 Local
Advertisement - Login to hide

Runways

ID Width Length Bearing (true) Bearing (mag) Surface Threshold Offset Overrun Length
01L 100 ft / 30 m 4,000 ft / 1,219 m 39.34° 23.07° Asphalt 0 ft / 0 m 0 ft / 0 m
01R 50 ft / 15 m 2,195 ft / 669 m 23.97° 7.70° Dirt 0 ft / 0 m 0 ft / 0 m
19L 50 ft / 15 m 2,195 ft / 669 m 203.98° 187.71° Dirt 0 ft / 0 m 0 ft / 0 m
19R 100 ft / 30 m 4,000 ft / 1,219 m 219.35° 203.08° Asphalt 0 ft / 0 m 0 ft / 0 m

Map

Weather


0- 5 10 15 20 25 30 35+ Temperature / ° C

Clouds and Precipitation
Forecast for 2018-05-24 12:00 UTC. Updated 5 hours ago

Ground ~20,000 ft ~40,000 ft Winds

METAR

PABV 241556Z AUTO 00000KT 10SM OVC090 07/03 A2974 RMK AO2 SLP080 T00670028 PNO $

TAF

Not found

Frequencies

Recorded 135.55 MHz AWOS 3
Unicom 123.00 MHz CTAF/UNICOM
Warning: Do not use this data for real-world aviation or navigation. No guarantee of current accuracy is given.